createdAt,value
2018-10-21T00:02:19.816Z,99.90
2018-10-21T00:04:47.892Z,99.90
2018-10-21T00:07:16.076Z,99.90
2018-10-21T00:09:44.270Z,99.90
2018-10-21T00:12:12.447Z,99.90
2018-10-21T00:14:40.629Z,99.90
2018-10-21T00:17:09.060Z,99.90
2018-10-21T00:19:37.260Z,99.90
2018-10-21T00:22:05.667Z,99.90
2018-10-21T00:24:33.857Z,99.90
2018-10-21T00:27:02.059Z,99.90
2018-10-21T00:29:30.236Z,99.90
2018-10-21T00:31:58.387Z,99.90
2018-10-21T00:34:26.620Z,99.90
2018-10-21T00:36:54.768Z,99.90
2018-10-21T00:39:22.970Z,99.90
2018-10-21T00:41:51.133Z,99.90
2018-10-21T00:44:19.325Z,99.90
2018-10-21T00:46:47.490Z,99.90
2018-10-21T00:49:15.678Z,99.90
2018-10-21T00:51:43.898Z,99.90
2018-10-21T00:54:14.579Z,99.90
2018-10-21T00:56:43.567Z,99.90
2018-10-21T00:59:11.768Z,99.90
2018-10-21T01:01:39.960Z,99.90
2018-10-21T01:04:08.439Z,99.90
2018-10-21T01:06:36.577Z,99.90
2018-10-21T01:09:08.127Z,99.90
2018-10-21T01:11:36.352Z,99.90
2018-10-21T01:14:05.065Z,99.90
2018-10-21T01:16:33.253Z,99.90
2018-10-21T01:19:01.436Z,99.90
2018-10-21T01:21:30.289Z,99.90
2018-10-21T01:23:58.450Z,99.90
2018-10-21T01:26:27.191Z,99.90
2018-10-21T01:28:55.376Z,99.90
2018-10-21T01:34:22.817Z,99.90
2018-10-21T01:36:51.082Z,99.90
2018-10-21T01:39:33.092Z,99.90
2018-10-21T01:42:01.252Z,99.90
2018-10-21T01:44:29.449Z,99.90
2018-10-21T01:46:57.743Z,99.90
2018-10-21T01:49:26.216Z,99.90
2018-10-21T01:51:54.397Z,99.90
2018-10-21T01:54:25.816Z,99.90
2018-10-21T01:56:54.214Z,99.90
2018-10-21T01:59:22.355Z,99.90
2018-10-21T02:01:50.529Z,99.90
2018-10-21T02:04:18.730Z,99.90
2018-10-21T02:06:46.902Z,99.90
2018-10-21T02:09:15.204Z,99.90
2018-10-21T02:11:43.333Z,99.90
2018-10-21T02:14:11.521Z,99.90
2018-10-21T02:16:39.661Z,99.90
2018-10-21T02:19:07.852Z,99.90
2018-10-21T02:21:36.009Z,99.90
2018-10-21T02:24:04.269Z,99.90
2018-10-21T02:26:32.491Z,99.90
2018-10-21T02:29:00.780Z,99.90
2018-10-21T02:31:28.965Z,99.90
2018-10-21T02:33:57.440Z,99.90
2018-10-21T02:36:25.609Z,99.90
2018-10-21T02:38:54.104Z,99.90
2018-10-21T02:41:34.757Z,99.90
2018-10-21T02:44:03.469Z,99.90
2018-10-21T02:46:32.003Z,99.90
2018-10-21T02:49:00.858Z,99.90
2018-10-21T02:51:29.096Z,99.90
2018-10-21T02:53:57.260Z,99.90
2018-10-21T02:56:25.460Z,99.90
2018-10-21T02:58:53.629Z,99.90
2018-10-21T03:01:21.821Z,99.90
2018-10-21T03:03:49.981Z,99.90
2018-10-21T03:06:18.238Z,99.90
2018-10-21T03:08:46.392Z,99.90
2018-10-21T03:11:14.601Z,99.90
2018-10-21T03:13:42.764Z,99.90
2018-10-21T03:16:11.035Z,99.90
2018-10-21T03:18:39.285Z,99.90
2018-10-21T03:21:08.081Z,99.90
2018-10-21T03:23:36.487Z,99.90
2018-10-21T03:26:04.854Z,99.90
2018-10-21T03:28:33.586Z,99.90
2018-10-21T03:31:02.028Z,99.90
2018-10-21T03:33:30.455Z,99.90
2018-10-21T03:35:58.652Z,99.90
2018-10-21T03:38:26.909Z,99.90
2018-10-21T03:40:55.185Z,99.90
2018-10-21T03:43:23.440Z,99.90
2018-10-21T03:45:51.742Z,99.90
2018-10-21T03:48:20.021Z,99.90
2018-10-21T03:50:48.307Z,99.90
2018-10-21T03:53:16.552Z,99.90
2018-10-21T03:55:44.899Z,99.90
2018-10-21T03:58:13.425Z,99.90
2018-10-21T04:00:41.608Z,99.90
2018-10-21T04:03:09.897Z,99.90
2018-10-21T04:05:38.459Z,99.90
2018-10-21T04:08:06.744Z,99.90
2018-10-21T04:10:35.177Z,99.90
2018-10-21T04:13:03.356Z,99.90
2018-10-21T04:15:31.689Z,99.90
2018-10-21T04:17:59.951Z,99.90
2018-10-21T04:20:28.236Z,99.90
2018-10-21T04:22:58.680Z,99.90
2018-10-21T04:25:27.842Z,99.90
2018-10-21T04:27:56.976Z,99.90
2018-10-21T04:30:27.250Z,99.90
2018-10-21T04:33:04.078Z,99.90
2018-10-21T04:35:32.794Z,99.90
2018-10-21T04:40:16.557Z,99.90
2018-10-21T04:42:45.417Z,99.90
2018-10-21T04:45:14.948Z,99.90
2018-10-21T04:47:43.218Z,99.90
2018-10-21T04:50:12.065Z,99.90
2018-10-21T04:52:41.325Z,99.90
2018-10-21T04:55:13.838Z,99.90
2018-10-21T04:57:43.259Z,99.90
2018-10-21T05:00:18.716Z,99.90
2018-10-21T05:02:46.896Z,99.90
2018-10-21T05:05:15.540Z,99.90
2018-10-21T05:07:43.806Z,99.90
2018-10-21T05:10:18.952Z,99.90
2018-10-21T05:12:47.174Z,99.90
2018-10-21T05:15:15.537Z,99.90
2018-10-21T05:17:43.724Z,99.90
2018-10-21T05:20:12.249Z,99.90
2018-10-21T05:22:40.500Z,99.90
2018-10-21T05:25:09.234Z,99.90
2018-10-21T05:27:37.481Z,99.90
2018-10-21T05:30:06.167Z,99.90
2018-10-21T05:32:34.412Z,99.90
2018-10-21T05:35:02.924Z,99.90
2018-10-21T05:37:31.170Z,99.90
2018-10-21T05:39:59.430Z,99.90
2018-10-21T05:42:27.712Z,99.90
2018-10-21T05:44:55.972Z,99.90
2018-10-21T05:47:24.252Z,99.90
2018-10-21T05:49:52.415Z,99.90
2018-10-21T05:52:20.715Z,99.90
2018-10-21T05:54:48.953Z,99.90
2018-10-21T05:57:17.240Z,99.90
2018-10-21T05:59:45.504Z,99.90
2018-10-21T06:02:13.817Z,99.90
2018-10-21T06:04:42.056Z,99.90
2018-10-21T06:07:10.352Z,99.90
2018-10-21T06:09:38.605Z,99.90
2018-10-21T06:12:06.793Z,99.90
2018-10-21T06:14:35.048Z,99.90
2018-10-21T06:17:11.173Z,99.90
2018-10-21T06:19:42.598Z,99.90
2018-10-21T06:22:11.098Z,99.90
2018-10-21T06:24:39.222Z,99.90
2018-10-21T06:27:07.532Z,99.90
2018-10-21T06:29:35.798Z,99.90
2018-10-21T06:32:04.077Z,99.90
2018-10-21T06:34:32.328Z,99.90
2018-10-21T06:37:00.785Z,99.90
2018-10-21T06:39:29.135Z,99.90
2018-10-21T06:41:57.617Z,99.90
2018-10-21T06:44:25.889Z,99.90
2018-10-21T06:46:54.117Z,99.90
2018-10-21T06:49:22.413Z,99.90
2018-10-21T06:51:50.735Z,99.90
2018-10-21T06:54:18.972Z,99.90
2018-10-21T06:56:47.711Z,99.90
2018-10-21T06:59:15.805Z,99.90
2018-10-21T07:01:44.066Z,99.90
2018-10-21T07:04:12.457Z,99.90
2018-10-21T07:06:40.997Z,99.90
2018-10-21T07:09:09.316Z,99.90
2018-10-21T07:11:37.651Z,99.90
2018-10-21T07:14:06.034Z,99.90
2018-10-21T07:16:34.707Z,99.90
2018-10-21T07:19:03.149Z,99.90
2018-10-21T07:21:31.509Z,99.90
2018-10-21T07:23:59.963Z,99.90
2018-10-21T07:26:28.573Z,99.90
2018-10-21T07:28:56.844Z,99.90
2018-10-21T07:31:25.114Z,99.90
2018-10-21T07:33:53.391Z,99.90
2018-10-21T07:36:21.704Z,99.90
2018-10-21T07:38:49.936Z,99.90
2018-10-21T07:41:18.099Z,99.90
2018-10-21T07:43:46.393Z,99.90
2018-10-21T07:46:14.686Z,99.90
2018-10-21T07:48:42.837Z,99.90
2018-10-21T07:51:11.094Z,99.90
2018-10-21T07:53:39.409Z,99.90
2018-10-21T07:56:07.644Z,99.90
2018-10-21T07:58:35.853Z,99.90
2018-10-21T08:01:04.206Z,99.90
2018-10-21T08:03:32.384Z,99.90
2018-10-21T08:06:25.931Z,99.90
2018-10-21T08:08:54.121Z,99.90
2018-10-21T08:11:22.429Z,99.90
2018-10-21T08:13:50.679Z,99.90
2018-10-21T08:16:19.013Z,99.90
2018-10-21T08:18:47.156Z,99.90
2018-10-21T08:21:15.627Z,99.90
2018-10-21T08:23:43.885Z,99.90
2018-10-21T08:26:12.172Z,99.90
2018-10-21T08:28:40.452Z,99.90
2018-10-21T08:31:08.703Z,99.90
2018-10-21T08:33:37.015Z,99.90
2018-10-21T08:36:06.094Z,99.90
2018-10-21T08:38:34.435Z,99.90
2018-10-21T08:41:02.722Z,99.90
2018-10-21T08:43:31.085Z,99.90
2018-10-21T08:45:59.363Z,99.90
2018-10-21T08:48:34.205Z,99.90
2018-10-21T08:51:02.708Z,99.90
2018-10-21T08:53:30.981Z,99.90
2018-10-21T08:55:59.295Z,99.90
2018-10-21T08:58:27.496Z,99.90
2018-10-21T09:00:55.694Z,99.90
2018-10-21T09:03:23.974Z,99.90
2018-10-21T09:05:52.233Z,99.90
2018-10-21T09:08:20.509Z,99.90
2018-10-21T09:10:48.936Z,99.90
2018-10-21T09:13:17.069Z,99.90
2018-10-21T09:15:45.352Z,99.90
2018-10-21T09:18:13.593Z,99.90
2018-10-21T09:20:41.785Z,99.90
2018-10-21T09:23:10.089Z,99.90
2018-10-21T09:25:38.357Z,99.90
2018-10-21T09:28:06.859Z,99.90
2018-10-21T09:30:35.113Z,99.90
2018-10-21T09:33:03.364Z,99.90
2018-10-21T09:35:31.673Z,99.90
2018-10-21T09:37:59.905Z,99.90
2018-10-21T09:40:28.105Z,99.90
2018-10-21T09:42:56.406Z,99.90
2018-10-21T09:45:24.542Z,99.90
2018-10-21T09:47:52.797Z,99.90
2018-10-21T09:50:20.996Z,99.90
2018-10-21T09:52:49.248Z,99.90
2018-10-21T09:55:18.331Z,99.90
2018-10-21T09:57:47.112Z,99.90
2018-10-21T10:00:20.778Z,99.90
2018-10-21T10:02:54.346Z,99.90
2018-10-21T10:05:23.408Z,99.90
2018-10-21T10:07:51.793Z,99.90
2018-10-21T10:10:20.002Z,99.90
2018-10-21T10:12:48.837Z,99.50
2018-10-21T10:15:17.286Z,99.80
2018-10-21T10:17:45.826Z,99.80
2018-10-21T10:20:14.032Z,99.00
2018-10-21T10:22:43.045Z,97.60
2018-10-21T10:25:11.742Z,96.80
2018-10-21T10:27:40.136Z,94.80
2018-10-21T10:30:10.022Z,93.60
2018-10-21T10:32:38.640Z,93.20
2018-10-21T10:35:07.188Z,93.10
2018-10-21T10:37:35.414Z,92.70
2018-10-21T10:40:03.663Z,92.50
2018-10-21T10:42:31.868Z,92.30
2018-10-21T10:45:00.136Z,91.10
2018-10-21T10:47:28.381Z,91.90
2018-10-21T10:49:56.549Z,91.80
2018-10-21T10:52:24.833Z,90.90
2018-10-21T10:54:53.002Z,91.00
2018-10-21T10:57:21.300Z,90.00
2018-10-21T10:59:49.565Z,90.10
2018-10-21T11:02:17.716Z,89.90
2018-10-21T11:04:46.090Z,89.20
2018-10-21T11:07:14.301Z,90.00
2018-10-21T11:09:42.452Z,88.70
2018-10-21T11:12:10.640Z,87.00
2018-10-21T11:14:38.792Z,86.10
2018-10-21T11:17:07.000Z,86.50
2018-10-21T11:19:35.156Z,89.40
2018-10-21T11:22:03.421Z,91.30
2018-10-21T11:24:31.513Z,91.90
2018-10-21T11:26:59.700Z,91.70
2018-10-21T11:29:27.882Z,92.00
2018-10-21T11:31:56.069Z,91.40
2018-10-21T11:34:24.330Z,92.00
2018-10-21T11:36:52.577Z,92.00
2018-10-21T11:39:21.656Z,92.50
2018-10-21T11:41:49.866Z,92.50
2018-10-21T11:44:18.033Z,92.10
2018-10-21T11:46:46.232Z,92.20
2018-10-21T11:49:15.855Z,91.80
2018-10-21T11:51:45.263Z,91.20
2018-10-21T11:54:14.713Z,90.10
2018-10-21T11:56:46.008Z,91.40
2018-10-21T11:59:16.942Z,91.70
2018-10-21T12:01:46.500Z,91.40
2018-10-21T12:04:15.987Z,91.20
2018-10-21T12:06:45.368Z,91.40
2018-10-21T12:09:14.686Z,90.20
2018-10-21T12:11:44.679Z,91.60
2018-10-21T12:14:14.015Z,90.80
2018-10-21T12:16:43.302Z,91.40
2018-10-21T12:19:14.228Z,91.80
2018-10-21T12:21:44.172Z,91.40
2018-10-21T12:24:13.473Z,91.10
2018-10-21T12:26:42.873Z,91.40
2018-10-21T12:29:12.205Z,92.10
2018-10-21T12:31:41.473Z,92.30
2018-10-21T12:34:11.438Z,91.50
2018-10-21T12:36:40.573Z,91.50
2018-10-21T12:39:11.047Z,91.00
2018-10-21T12:41:40.942Z,90.60
2018-10-21T12:44:10.342Z,91.30
2018-10-21T12:46:41.985Z,90.70
2018-10-21T12:49:10.984Z,90.70
2018-10-21T12:51:40.270Z,90.70
2018-10-21T12:54:09.401Z,90.00
2018-10-21T12:56:38.699Z,90.60
2018-10-21T12:59:08.271Z,90.40
2018-10-21T13:01:41.360Z,90.00
2018-10-21T13:04:10.805Z,86.40
2018-10-21T13:06:40.000Z,87.60
2018-10-21T13:09:10.005Z,86.80
2018-10-21T13:11:40.931Z,86.90
2018-10-21T13:14:10.581Z,85.60
2018-10-21T13:16:45.874Z,84.90
2018-10-21T13:19:14.981Z,83.30
2018-10-21T13:21:45.247Z,81.20
2018-10-21T13:24:14.666Z,82.90
2018-10-21T13:26:44.069Z,82.80
2018-10-21T13:29:14.431Z,83.10
2018-10-21T13:31:45.166Z,83.50
2018-10-21T13:34:14.649Z,84.00
2018-10-21T13:36:43.317Z,84.90
2018-10-21T13:39:13.216Z,86.40
2018-10-21T13:41:41.705Z,86.80
2018-10-21T13:44:09.955Z,87.50
2018-10-21T13:46:38.121Z,87.50
2018-10-21T13:49:06.430Z,88.80
2018-10-21T13:51:34.812Z,88.60
2018-10-21T13:54:02.989Z,89.70
2018-10-21T13:56:31.207Z,90.20
2018-10-21T13:58:59.450Z,90.40
2018-10-21T14:01:27.739Z,90.30
2018-10-21T14:03:55.930Z,90.70
2018-10-21T14:06:24.084Z,90.90
2018-10-21T14:08:52.324Z,90.80
2018-10-21T14:11:20.487Z,91.30
2018-10-21T14:13:48.685Z,91.40
2018-10-21T14:16:17.060Z,91.70
2018-10-21T14:18:45.602Z,91.70
2018-10-21T14:21:13.802Z,91.70
2018-10-21T14:23:41.975Z,91.50
2018-10-21T14:26:10.201Z,91.60
2018-10-21T14:28:38.379Z,91.40
2018-10-21T14:31:06.564Z,91.90
2018-10-21T14:33:34.754Z,92.00
2018-10-21T14:36:02.954Z,92.30
2018-10-21T14:38:31.776Z,92.10
2018-10-21T14:41:00.256Z,92.40
2018-10-21T14:43:28.803Z,92.70
2018-10-21T14:45:57.088Z,92.30
2018-10-21T14:48:25.153Z,92.30
2018-10-21T14:50:53.331Z,92.90
2018-10-21T14:53:21.534Z,92.60
2018-10-21T14:55:49.702Z,92.60
2018-10-21T14:58:17.874Z,92.80
2018-10-21T15:00:46.133Z,92.90
2018-10-21T15:03:14.281Z,92.60
2018-10-21T15:05:42.449Z,92.60
2018-10-21T15:08:10.689Z,93.00
2018-10-21T15:10:38.812Z,92.90
2018-10-21T15:13:06.981Z,92.70
2018-10-21T15:15:35.187Z,93.00
2018-10-21T15:18:03.374Z,93.10
2018-10-21T15:20:31.568Z,93.40
2018-10-21T15:22:59.795Z,93.70
2018-10-21T15:25:27.936Z,94.00
2018-10-21T15:27:56.108Z,94.40
2018-10-21T15:30:24.304Z,94.30
2018-10-21T15:32:52.489Z,94.10
2018-10-21T15:35:20.681Z,94.10
2018-10-21T15:37:48.844Z,94.30
2018-10-21T15:40:17.115Z,93.80
2018-10-21T15:42:45.369Z,94.00
2018-10-21T15:45:13.427Z,94.30
2018-10-21T15:47:41.605Z,94.60
2018-10-21T15:50:10.071Z,94.70
2018-10-21T15:52:38.172Z,94.80
2018-10-21T15:55:07.090Z,95.40
2018-10-21T15:57:35.253Z,95.60
2018-10-21T16:00:03.483Z,95.80
2018-10-21T16:02:31.665Z,96.00
2018-10-21T16:04:59.892Z,96.10
2018-10-21T16:07:28.056Z,96.50
2018-10-21T16:09:57.916Z,96.40
2018-10-21T16:12:26.041Z,96.90
2018-10-21T16:14:54.257Z,96.70
2018-10-21T16:17:22.416Z,97.00
2018-10-21T16:19:50.671Z,97.20
2018-10-21T16:22:18.866Z,97.80
2018-10-21T16:24:46.962Z,98.20
2018-10-21T16:27:15.137Z,98.50
2018-10-21T16:29:43.384Z,98.80
2018-10-21T16:32:11.572Z,99.20
2018-10-21T16:34:39.740Z,99.60
2018-10-21T16:37:07.901Z,99.80
2018-10-21T16:39:36.101Z,99.90
2018-10-21T16:42:04.373Z,99.90
2018-10-21T16:44:33.874Z,99.90
2018-10-21T16:47:02.036Z,99.90
2018-10-21T16:49:30.249Z,99.90
2018-10-21T16:51:58.405Z,99.90
2018-10-21T16:54:26.608Z,99.90
2018-10-21T16:56:54.829Z,99.90
2018-10-21T16:59:23.006Z,99.90
2018-10-21T17:01:51.233Z,99.90
2018-10-21T17:04:19.430Z,99.90
2018-10-21T17:06:47.670Z,99.90
2018-10-21T17:09:15.948Z,99.90
2018-10-21T17:11:44.481Z,99.90
2018-10-21T17:14:12.646Z,99.90
2018-10-21T17:16:40.842Z,99.90
2018-10-21T17:19:09.283Z,99.90
2018-10-21T17:21:37.456Z,99.90
2018-10-21T17:24:05.622Z,99.90
2018-10-21T17:26:33.795Z,99.90
2018-10-21T17:29:02.039Z,99.90
2018-10-21T17:31:30.267Z,99.90
2018-10-21T17:33:58.407Z,99.90
2018-10-21T17:36:26.600Z,99.90
2018-10-21T17:38:54.760Z,99.90
2018-10-21T17:41:22.965Z,99.90
2018-10-21T17:43:51.165Z,99.90
2018-10-21T17:46:19.370Z,99.90
2018-10-21T17:48:48.082Z,99.90
2018-10-21T17:51:16.278Z,99.90
2018-10-21T17:53:44.448Z,99.90
2018-10-21T17:56:12.644Z,99.90
2018-10-21T17:58:40.904Z,99.90
2018-10-21T18:03:43.701Z,99.90
2018-10-21T18:06:11.896Z,99.90
2018-10-21T18:08:40.073Z,99.90
2018-10-21T18:11:08.272Z,99.90
2018-10-21T18:13:36.454Z,99.90
2018-10-21T18:16:04.768Z,99.90
2018-10-21T18:18:32.925Z,99.90
2018-10-21T18:21:01.062Z,99.90
2018-10-21T18:23:29.343Z,99.90
2018-10-21T18:25:57.628Z,99.90
2018-10-21T18:28:25.832Z,99.90
2018-10-21T18:30:54.034Z,99.90
2018-10-21T18:33:22.193Z,99.90
2018-10-21T18:35:50.428Z,99.90
2018-10-21T18:38:18.585Z,99.90
2018-10-21T18:40:46.804Z,99.90
2018-10-21T18:43:15.091Z,99.90
2018-10-21T18:45:43.189Z,99.90
2018-10-21T18:48:11.389Z,99.90
2018-10-21T18:50:39.784Z,99.90
2018-10-21T18:53:08.005Z,99.90
2018-10-21T18:55:36.176Z,99.90
2018-10-21T18:58:04.532Z,99.90
2018-10-21T19:00:32.673Z,99.90
2018-10-21T19:03:00.882Z,99.90
2018-10-21T19:05:29.093Z,99.90
2018-10-21T19:07:57.325Z,99.90
2018-10-21T19:10:25.492Z,99.90
2018-10-21T19:13:00.057Z,99.90
2018-10-21T19:15:21.889Z,99.90
2018-10-21T19:17:50.087Z,99.90
2018-10-21T19:20:18.270Z,99.90
2018-10-21T19:22:46.469Z,99.90
2018-10-21T19:25:15.752Z,99.90
2018-10-21T19:27:44.728Z,99.90
2018-10-21T19:30:13.541Z,99.90
2018-10-21T19:32:42.085Z,99.90
2018-10-21T19:35:11.584Z,99.90
2018-10-21T19:37:41.238Z,99.90
2018-10-21T19:40:11.108Z,99.90
2018-10-21T19:42:39.213Z,99.90
2018-10-21T19:45:08.000Z,99.90
2018-10-21T19:47:36.190Z,99.90
2018-10-21T19:50:04.573Z,99.90
2018-10-21T19:52:32.721Z,99.90
2018-10-21T19:55:00.929Z,99.90
2018-10-21T19:57:29.107Z,99.90
2018-10-21T19:59:57.304Z,99.90
2018-10-21T20:02:25.519Z,99.90
2018-10-21T20:04:53.664Z,99.90
2018-10-21T20:07:21.874Z,99.90
2018-10-21T20:09:50.463Z,99.90
2018-10-21T20:12:18.650Z,99.90
2018-10-21T20:14:46.820Z,99.90
2018-10-21T20:17:15.090Z,99.90
2018-10-21T20:19:43.277Z,99.90
2018-10-21T20:22:12.211Z,99.90
2018-10-21T20:24:40.681Z,99.90
2018-10-21T20:27:09.203Z,99.90
2018-10-21T20:29:37.369Z,99.90
2018-10-21T20:32:06.334Z,99.90
2018-10-21T20:34:34.550Z,99.90
2018-10-21T20:37:02.751Z,99.90
2018-10-21T20:39:30.935Z,99.90
2018-10-21T20:41:59.116Z,99.90
2018-10-21T20:44:28.176Z,99.90
2018-10-21T20:46:56.527Z,99.90
2018-10-21T20:49:24.721Z,99.90
2018-10-21T20:51:52.882Z,99.90
2018-10-21T20:54:21.095Z,99.90
2018-10-21T20:56:49.261Z,99.90
2018-10-21T20:59:17.492Z,99.90
2018-10-21T21:01:45.818Z,99.90
2018-10-21T21:04:14.038Z,99.90
2018-10-21T21:06:42.244Z,99.90
2018-10-21T21:09:10.500Z,99.90
2018-10-21T21:11:38.682Z,99.90
2018-10-21T21:14:06.881Z,99.90
2018-10-21T21:16:35.044Z,99.90
2018-10-21T21:19:03.287Z,99.90
2018-10-21T21:21:31.453Z,99.90
2018-10-21T21:23:59.656Z,99.90
2018-10-21T21:26:27.800Z,99.90
2018-10-21T21:28:55.985Z,99.90
2018-10-21T21:31:24.434Z,99.90
2018-10-21T21:33:52.620Z,99.90
2018-10-21T21:36:20.949Z,99.90
2018-10-21T21:38:48.995Z,99.90
2018-10-21T21:41:17.204Z,99.90
2018-10-21T21:43:45.445Z,99.90
2018-10-21T21:46:14.484Z,99.90
2018-10-21T21:48:42.666Z,99.90
2018-10-21T21:51:11.141Z,99.90
2018-10-21T21:53:39.308Z,99.90
2018-10-21T21:56:07.817Z,99.90
2018-10-21T21:58:36.017Z,99.90
2018-10-21T22:01:04.177Z,99.90
2018-10-21T22:03:32.821Z,99.90
2018-10-21T22:06:01.640Z,99.90
2018-10-21T22:08:30.501Z,99.90
2018-10-21T22:10:59.452Z,99.90
2018-10-21T22:13:27.752Z,99.90
2018-10-21T22:15:57.789Z,99.90
2018-10-21T22:18:26.981Z,99.90
2018-10-21T22:20:55.153Z,99.90
2018-10-21T22:23:23.367Z,99.90
2018-10-21T22:25:52.419Z,99.90
2018-10-21T22:28:20.753Z,99.90
2018-10-21T22:30:48.918Z,99.90
2018-10-21T22:33:17.123Z,99.90
2018-10-21T22:35:45.342Z,99.90
2018-10-21T22:38:14.250Z,99.90
2018-10-21T22:40:42.958Z,99.90
2018-10-21T22:43:11.390Z,99.90
2018-10-21T22:45:39.648Z,99.90
2018-10-21T22:48:07.884Z,99.90
2018-10-21T22:50:36.079Z,99.90
2018-10-21T22:53:04.299Z,99.90
2018-10-21T22:55:32.480Z,99.90
2018-10-21T22:58:00.677Z,99.90
2018-10-21T23:00:28.883Z,99.90
2018-10-21T23:02:57.049Z,99.90
2018-10-21T23:05:25.223Z,99.90
2018-10-21T23:07:53.397Z,99.90
2018-10-21T23:10:21.585Z,99.90
2018-10-21T23:12:49.757Z,99.90
2018-10-21T23:15:17.952Z,99.90
2018-10-21T23:17:46.117Z,99.90
2018-10-21T23:20:14.306Z,99.90
2018-10-21T23:22:42.490Z,99.90
2018-10-21T23:25:10.677Z,99.90
2018-10-21T23:27:38.840Z,99.90
2018-10-21T23:30:07.405Z,99.90
2018-10-21T23:32:35.542Z,99.90
2018-10-21T23:35:03.744Z,99.90
2018-10-21T23:37:31.905Z,99.90
2018-10-21T23:40:00.110Z,99.90
2018-10-21T23:42:28.261Z,99.90
2018-10-21T23:44:56.457Z,99.90
2018-10-21T23:47:24.617Z,99.90
2018-10-21T23:49:52.804Z,99.90
2018-10-21T23:52:21.070Z,99.90
2018-10-21T23:54:49.221Z,99.90
2018-10-21T23:57:17.381Z,99.90
2018-10-21T23:59:45.609Z,99.90
